sensor_id;sensor_type;location;lat;lon;timestamp;pressure;altitude;pressure_sealevel;temperature
64904;BMP280;51401;48.882;12.598;2022-12-20T00:01:24;103200.16;;;-0.73
64904;BMP280;51401;48.882;12.598;2022-12-20T00:03:51;103127.84;;;-0.72
64904;BMP280;51401;48.882;12.598;2022-12-20T00:06:18;103050.72;;;-0.74
64904;BMP280;51401;48.882;12.598;2022-12-20T00:08:44;103011.38;;;-0.79
64904;BMP280;51401;48.882;12.598;2022-12-20T00:11:10;103007.06;;;-0.79
64904;BMP280;51401;48.882;12.598;2022-12-20T00:13:35;102996.88;;;-0.79
64904;BMP280;51401;48.882;12.598;2022-12-20T00:16:08;102977.47;;;-0.80
64904;BMP280;51401;48.882;12.598;2022-12-20T00:18:34;103003.72;;;-0.72
64904;BMP280;51401;48.882;12.598;2022-12-20T00:21:01;102977.31;;;-0.78
64904;BMP280;51401;48.882;12.598;2022-12-20T00:23:27;102972.34;;;-0.72
64904;BMP280;51401;48.882;12.598;2022-12-20T00:26:02;102961.38;;;-0.73
64904;BMP280;51401;48.882;12.598;2022-12-20T00:28:29;102951.63;;;-0.69
64904;BMP280;51401;48.882;12.598;2022-12-20T00:30:54;102955.00;;;-0.69
64904;BMP280;51401;48.882;12.598;2022-12-20T00:33:20;102923.44;;;-0.75
64904;BMP280;51401;48.882;12.598;2022-12-20T00:35:46;102951.63;;;-0.69
64904;BMP280;51401;48.882;12.598;2022-12-20T00:38:11;102950.69;;;-0.68
64904;BMP280;51401;48.882;12.598;2022-12-20T00:40:36;102947.78;;;-0.65
64904;BMP280;51401;48.882;12.598;2022-12-20T00:43:01;102928.03;;;-0.71
64904;BMP280;51401;48.882;12.598;2022-12-20T00:45:27;102924.56;;;-0.70
64904;BMP280;51401;48.882;12.598;2022-12-20T00:47:53;102952.44;;;-0.69
64904;BMP280;51401;48.882;12.598;2022-12-20T00:50:18;102972.19;;;-0.63
64904;BMP280;51401;48.882;12.598;2022-12-20T00:52:43;102941.41;;;-0.69
64904;BMP280;51401;48.882;12.598;2022-12-20T00:55:09;102959.25;;;-0.69
64904;BMP280;51401;48.882;12.598;2022-12-20T00:57:34;102962.16;;;-0.72
64904;BMP280;51401;48.882;12.598;2022-12-20T00:59:59;102982.56;;;-0.72
64904;BMP280;51401;48.882;12.598;2022-12-20T01:02:24;103000.69;;;-0.67
64904;BMP280;51401;48.882;12.598;2022-12-20T01:04:50;103005.78;;;-0.67
64904;BMP280;51401;48.882;12.598;2022-12-20T01:07:15;103006.59;;;-0.67
64904;BMP280;51401;48.882;12.598;2022-12-20T01:09:40;103042.91;;;-0.57
64904;BMP280;51401;48.882;12.598;2022-12-20T01:12:06;103018.09;;;-0.71
64904;BMP280;51401;48.882;12.598;2022-12-20T01:14:31;103063.47;;;-0.66
64904;BMP280;51401;48.882;12.598;2022-12-20T01:16:56;103052.00;;;-0.70
64904;BMP280;51401;48.882;12.598;2022-12-20T01:19:22;103095.63;;;-0.65
64904;BMP280;51401;48.882;12.598;2022-12-20T01:21:47;103111.75;;;-0.57
64904;BMP280;51401;48.882;12.598;2022-12-20T01:24:14;103101.22;;;-0.54
64904;BMP280;51401;48.882;12.598;2022-12-20T01:26:40;103103.59;;;-0.52
64904;BMP280;51401;48.882;12.598;2022-12-20T01:29:06;103066.63;;;-0.48
64904;BMP280;51401;48.882;12.598;2022-12-20T01:31:31;103003.56;;;-0.62
64904;BMP280;51401;48.882;12.598;2022-12-20T01:33:58;103037.34;;;-0.60
64904;BMP280;51401;48.882;12.598;2022-12-20T01:36:26;103018.50;;;-0.59
64904;BMP280;51401;48.882;12.598;2022-12-20T01:38:56;103025.69;;;-0.55
64904;BMP280;51401;48.882;12.598;2022-12-20T01:41:22;102991.44;;;-0.60
64904;BMP280;51401;48.882;12.598;2022-12-20T01:46:17;103001.00;;;-0.54
64904;BMP280;51401;48.882;12.598;2022-12-20T01:48:48;102956.38;;;-0.58
64904;BMP280;51401;48.882;12.598;2022-12-20T01:51:15;102928.66;;;-0.61
64904;BMP280;51401;48.882;12.598;2022-12-20T01:53:42;102877.41;;;-0.74
64904;BMP280;51401;48.882;12.598;2022-12-20T01:56:08;102893.38;;;-0.80
64904;BMP280;51401;48.882;12.598;2022-12-20T01:58:34;102912.81;;;-0.87
64904;BMP280;51401;48.882;12.598;2022-12-20T02:01:00;102978.59;;;-0.82
64904;BMP280;51401;48.882;12.598;2022-12-20T02:03:26;102997.84;;;-0.80
64904;BMP280;51401;48.882;12.598;2022-12-20T02:05:52;103016.00;;;-0.83
64904;BMP280;51401;48.882;12.598;2022-12-20T02:08:19;103043.09;;;-0.82
64904;BMP280;51401;48.882;12.598;2022-12-20T02:22:25;103108.56;;;-0.82
64904;BMP280;51401;48.882;12.598;2022-12-20T02:28:25;103063.47;;;-0.74
64904;BMP280;51401;48.882;12.598;2022-12-20T02:30:56;103026.38;;;-0.84
64904;BMP280;51401;48.882;12.598;2022-12-20T02:33:26;103028.28;;;-0.86
64904;BMP280;51401;48.882;12.598;2022-12-20T02:35:52;103037.50;;;-0.85
64904;BMP280;51401;48.882;12.598;2022-12-20T02:38:36;103038.63;;;-0.88
64904;BMP280;51401;48.882;12.598;2022-12-20T02:41:13;103085.44;;;-0.81
64904;BMP280;51401;48.882;12.598;2022-12-20T02:43:43;103068.88;;;-0.85
64904;BMP280;51401;48.882;12.598;2022-12-20T02:46:29;103082.25;;;-0.83
64904;BMP280;51401;48.882;12.598;2022-12-20T02:49:00;103120.19;;;-0.80
64904;BMP280;51401;48.882;12.598;2022-12-20T02:51:28;103095.34;;;-0.78
64904;BMP280;51401;48.882;12.598;2022-12-20T02:53:54;103096.28;;;-0.79
64904;BMP280;51401;48.882;12.598;2022-12-20T02:56:46;103072.41;;;-0.86
64904;BMP280;51401;48.882;12.598;2022-12-20T02:59:20;103036.25;;;-0.89
64904;BMP280;51401;48.882;12.598;2022-12-20T03:01:51;103075.88;;;-0.87
64904;BMP280;51401;48.882;12.598;2022-12-20T03:04:20;103084.16;;;-0.93
64904;BMP280;51401;48.882;12.598;2022-12-20T03:09:21;103114.94;;;-0.94
64904;BMP280;51401;48.882;12.598;2022-12-20T03:11:46;103113.00;;;-1.00
64904;BMP280;51401;48.882;12.598;2022-12-20T03:14:11;103147.06;;;-1.01
64904;BMP280;51401;48.882;12.598;2022-12-20T03:16:36;103189.59;;;-1.02
64904;BMP280;51401;48.882;12.598;2022-12-20T03:19:02;103253.00;;;-0.91
64904;BMP280;51401;48.882;12.598;2022-12-20T03:21:27;103285.06;;;-0.80
64904;BMP280;51401;48.882;12.598;2022-12-20T03:23:53;103257.69;;;-0.78
64904;BMP280;51401;48.882;12.598;2022-12-20T03:26:18;103214.50;;;-0.80
64904;BMP280;51401;48.882;12.598;2022-12-20T03:28:43;103155.53;;;-0.85
64904;BMP280;51401;48.882;12.598;2022-12-20T03:31:08;103137.53;;;-0.83
64904;BMP280;51401;48.882;12.598;2022-12-20T03:33:34;103113.19;;;-0.86
64904;BMP280;51401;48.882;12.598;2022-12-20T03:35:59;103120.66;;;-0.84
64904;BMP280;51401;48.882;12.598;2022-12-20T03:38:24;103097.09;;;-0.86
64904;BMP280;51401;48.882;12.598;2022-12-20T03:40:50;103119.84;;;-0.85
64904;BMP280;51401;48.882;12.598;2022-12-20T03:43:15;103126.06;;;-0.87
64904;BMP280;51401;48.882;12.598;2022-12-20T03:45:40;103140.25;;;-0.77
64904;BMP280;51401;48.882;12.598;2022-12-20T03:48:06;103101.56;;;-0.80
64904;BMP280;51401;48.882;12.598;2022-12-20T03:50:31;103068.88;;;-0.85
64904;BMP280;51401;48.882;12.598;2022-12-20T03:52:56;103072.06;;;-0.83
64904;BMP280;51401;48.882;12.598;2022-12-20T03:55:22;103086.72;;;-0.77
64904;BMP280;51401;48.882;12.598;2022-12-20T03:57:48;103086.09;;;-0.71
64904;BMP280;51401;48.882;12.598;2022-12-20T04:00:13;103032.56;;;-0.79
64904;BMP280;51401;48.882;12.598;2022-12-20T04:02:39;103056.75;;;-0.67
64904;BMP280;51401;48.882;12.598;2022-12-20T04:05:05;102994.03;;;-0.76
64904;BMP280;51401;48.882;12.598;2022-12-20T04:07:30;102982.72;;;-0.81
64904;BMP280;51401;48.882;12.598;2022-12-20T04:09:56;102995.47;;;-0.81
64904;BMP280;51401;48.882;12.598;2022-12-20T04:12:21;103001.97;;;-0.79
64904;BMP280;51401;48.882;12.598;2022-12-20T04:14:46;103017.91;;;-0.77
64904;BMP280;51401;48.882;12.598;2022-12-20T04:17:12;103018.53;;;-0.75
64904;BMP280;51401;48.882;12.598;2022-12-20T04:19:37;103019.03;;;-0.72
64904;BMP280;51401;48.882;12.598;2022-12-20T04:22:02;103018.22;;;-0.72
64904;BMP280;51401;48.882;12.598;2022-12-20T04:24:28;103036.06;;;-0.64
64904;BMP280;51401;48.882;12.598;2022-12-20T04:26:53;103050.38;;;-0.55
64904;BMP280;51401;48.882;12.598;2022-12-20T04:29:18;103054.53;;;-0.46
64904;BMP280;51401;48.882;12.598;2022-12-20T04:31:44;102992.34;;;-0.45
64904;BMP280;51401;48.882;12.598;2022-12-20T04:34:09;102935.97;;;-0.50
64904;BMP280;51401;48.882;12.598;2022-12-20T04:36:34;102893.53;;;-0.43
64904;BMP280;51401;48.882;12.598;2022-12-20T04:39:00;102879.78;;;-0.35
64904;BMP280;51401;48.882;12.598;2022-12-20T04:41:25;102806.66;;;-0.42
64904;BMP280;51401;48.882;12.598;2022-12-20T04:43:53;102774.50;;;-0.43
64904;BMP280;51401;48.882;12.598;2022-12-20T04:46:19;102745.47;;;-0.42
64904;BMP280;51401;48.882;12.598;2022-12-20T04:48:45;102719.50;;;-0.45
64904;BMP280;51401;48.882;12.598;2022-12-20T04:51:10;102702.63;;;-0.46
64904;BMP280;51401;48.882;12.598;2022-12-20T04:53:36;102684.16;;;-0.48
64904;BMP280;51401;48.882;12.598;2022-12-20T04:56:27;102675.22;;;-0.44
64904;BMP280;51401;48.882;12.598;2022-12-20T04:58:54;102647.06;;;-0.51
64904;BMP280;51401;48.882;12.598;2022-12-20T05:01:20;102648.63;;;-0.50
64904;BMP280;51401;48.882;12.598;2022-12-20T05:03:46;102639.41;;;-0.51
64904;BMP280;51401;48.882;12.598;2022-12-20T05:06:13;102615.72;;;-0.59
64904;BMP280;51401;48.882;12.598;2022-12-20T05:08:38;102599.09;;;-0.70
64904;BMP280;51401;48.882;12.598;2022-12-20T05:11:05;102615.84;;;-0.75
64904;BMP280;51401;48.882;12.598;2022-12-20T05:13:31;102651.53;;;-0.75
64904;BMP280;51401;48.882;12.598;2022-12-20T05:15:57;102677.69;;;-0.81
64904;BMP280;51401;48.882;12.598;2022-12-20T05:18:24;102754.16;;;-0.81
64904;BMP280;51401;48.882;12.598;2022-12-20T05:20:49;102777.94;;;-0.88
64904;BMP280;51401;48.882;12.598;2022-12-20T05:23:35;102819.50;;;-0.88
64904;BMP280;51401;48.882;12.598;2022-12-20T05:26:20;102876.19;;;-0.86
64904;BMP280;51401;48.882;12.598;2022-12-20T05:28:46;102927.00;;;-0.84
64904;BMP280;51401;48.882;12.598;2022-12-20T05:31:11;102954.84;;;-0.83
64904;BMP280;51401;48.882;12.598;2022-12-20T05:33:37;102976.84;;;-0.82
64904;BMP280;51401;48.882;12.598;2022-12-20T05:36:02;102970.75;;;-0.81
64904;BMP280;51401;48.882;12.598;2022-12-20T05:38:28;102959.63;;;-0.80
64904;BMP280;51401;48.882;12.598;2022-12-20T05:40:53;102974.28;;;-0.82
64904;BMP280;51401;48.882;12.598;2022-12-20T05:43:18;102988.47;;;-0.87
64904;BMP280;51401;48.882;12.598;2022-12-20T05:45:50;102999.78;;;-0.90
64904;BMP280;51401;48.882;12.598;2022-12-20T05:48:17;103037.22;;;-0.90
64904;BMP280;51401;48.882;12.598;2022-12-20T05:50:43;103058.38;;;-0.98
64904;BMP280;51401;48.882;12.598;2022-12-20T05:53:13;103134.84;;;-0.90
64904;BMP280;51401;48.882;12.598;2022-12-20T05:55:47;103126.53;;;-1.00
64904;BMP280;51401;48.882;12.598;2022-12-20T05:58:13;103164.75;;;-1.00
64904;BMP280;51401;48.882;12.598;2022-12-20T06:00:40;103231.66;;;-0.90
64904;BMP280;51401;48.882;12.598;2022-12-20T06:03:06;103207.75;;;-0.97
64904;BMP280;51401;48.882;12.598;2022-12-20T06:05:34;103202.63;;;-1.05
64904;BMP280;51401;48.882;12.598;2022-12-20T06:07:59;103239.56;;;-1.09
64904;BMP280;51401;48.882;12.598;2022-12-20T06:10:24;103315.69;;;-1.06
64904;BMP280;51401;48.882;12.598;2022-12-20T06:12:50;103328.41;;;-1.13
64904;BMP280;51401;48.882;12.598;2022-12-20T06:15:16;103395.28;;;-1.11
64904;BMP280;51401;48.882;12.598;2022-12-20T06:17:41;103486.75;;;-1.01
64904;BMP280;51401;48.882;12.598;2022-12-20T06:20:07;103477.66;;;-1.03
64904;BMP280;51401;48.882;12.598;2022-12-20T06:22:33;103508.75;;;-1.00
64904;BMP280;51401;48.882;12.598;2022-12-20T06:24:59;103558.03;;;-0.91
64904;BMP280;51401;48.882;12.598;2022-12-20T06:27:24;103539.53;;;-0.93
64904;BMP280;51401;48.882;12.598;2022-12-20T06:29:49;103543.03;;;-0.94
64904;BMP280;51401;48.882;12.598;2022-12-20T06:32:19;103555.34;;;-0.90
64904;BMP280;51401;48.882;12.598;2022-12-20T06:34:45;103539.06;;;-0.89
64904;BMP280;51401;48.882;12.598;2022-12-20T06:37:10;103516.44;;;-0.92
64904;BMP280;51401;48.882;12.598;2022-12-20T06:39:35;103486.00;;;-0.93
64904;BMP280;51401;48.882;12.598;2022-12-20T06:42:01;103454.28;;;-0.99
64904;BMP280;51401;48.882;12.598;2022-12-20T06:44:26;103492.88;;;-0.94
64904;BMP280;51401;48.882;12.598;2022-12-20T06:46:51;103487.75;;;-0.94
64904;BMP280;51401;48.882;12.598;2022-12-20T06:49:17;103511.03;;;-0.89
64904;BMP280;51401;48.882;12.598;2022-12-20T06:51:42;103524.44;;;-0.87
64904;BMP280;51401;48.882;12.598;2022-12-20T06:54:07;103495.75;;;-0.89
64904;BMP280;51401;48.882;12.598;2022-12-20T06:56:33;103551.28;;;-0.75
64904;BMP280;51401;48.882;12.598;2022-12-20T06:58:58;103517.88;;;-0.72
64904;BMP280;51401;48.882;12.598;2022-12-20T07:01:24;103454.09;;;-0.80
64904;BMP280;51401;48.882;12.598;2022-12-20T07:03:49;103456.81;;;-0.74
64904;BMP280;51401;48.882;12.598;2022-12-20T07:06:14;103457.66;;;-0.65
64904;BMP280;51401;48.882;12.598;2022-12-20T07:08:40;103394.56;;;-0.63
64904;BMP280;51401;48.882;12.598;2022-12-20T07:11:06;103329.25;;;-0.64
64904;BMP280;51401;48.882;12.598;2022-12-20T07:13:31;103275.38;;;-0.61
64904;BMP280;51401;48.882;12.598;2022-12-20T07:16:01;103215.81;;;-0.60
64904;BMP280;51401;48.882;12.598;2022-12-20T07:18:27;103168.63;;;-0.64
64904;BMP280;51401;48.882;12.598;2022-12-20T07:20:53;103176.13;;;-0.63
64904;BMP280;51401;48.882;12.598;2022-12-20T07:23:18;103185.06;;;-0.59
64904;BMP280;51401;48.882;12.598;2022-12-20T07:25:55;103162.75;;;-0.57
64904;BMP280;51401;48.882;12.598;2022-12-20T07:28:22;103147.91;;;-0.61
64904;BMP280;51401;48.882;12.598;2022-12-20T07:30:48;103191.44;;;-0.55
64904;BMP280;51401;48.882;12.598;2022-12-20T07:33:13;103207.53;;;-0.46
64904;BMP280;51401;48.882;12.598;2022-12-20T07:35:39;103160.00;;;-0.47
64904;BMP280;51401;48.882;12.598;2022-12-20T07:38:04;103126.56;;;-0.44
64904;BMP280;51401;48.882;12.598;2022-12-20T07:40:30;103128.13;;;-0.36
64904;BMP280;51401;48.882;12.598;2022-12-20T07:42:55;103102.00;;;-0.30
64904;BMP280;51401;48.882;12.598;2022-12-20T07:45:20;103035.38;;;-0.27
64904;BMP280;51401;48.882;12.598;2022-12-20T07:47:46;102952.78;;;-0.34
64904;BMP280;51401;48.882;12.598;2022-12-20T07:50:11;102910.22;;;-0.33
64904;BMP280;51401;48.882;12.598;2022-12-20T07:52:38;102851.25;;;-0.38
64904;BMP280;51401;48.882;12.598;2022-12-20T07:55:05;102815.59;;;-0.46
64904;BMP280;51401;48.882;12.598;2022-12-20T07:57:41;102839.13;;;-0.36
64904;BMP280;51401;48.882;12.598;2022-12-20T08:00:09;102840.28;;;-0.38
64904;BMP280;51401;48.882;12.598;2022-12-20T08:02:39;102851.56;;;-0.33
64904;BMP280;51401;48.882;12.598;2022-12-20T08:05:07;102840.88;;;-0.29
64904;BMP280;51401;48.882;12.598;2022-12-20T08:07:34;102790.16;;;-0.24
64904;BMP280;51401;48.882;12.598;2022-12-20T08:10:00;102779.56;;;-0.13
64904;BMP280;51401;48.882;12.598;2022-12-20T08:12:27;102712.84;;;-0.10
64904;BMP280;51401;48.882;12.598;2022-12-20T08:14:53;102655.09;;;-0.03
64904;BMP280;51401;48.882;12.598;2022-12-20T08:17:20;102547.03;;;-0.10
64904;BMP280;51401;48.882;12.598;2022-12-20T08:19:46;102517.75;;;0.00
64904;BMP280;51401;48.882;12.598;2022-12-20T08:22:11;102461.56;;;0.15
64904;BMP280;51401;48.882;12.598;2022-12-20T08:24:36;102354.97;;;0.17
64904;BMP280;51401;48.882;12.598;2022-12-20T08:27:02;102272.41;;;0.24
64904;BMP280;51401;48.882;12.598;2022-12-20T08:29:27;102150.47;;;0.20
64904;BMP280;51401;48.882;12.598;2022-12-20T08:31:53;102028.72;;;0.14
64904;BMP280;51401;48.882;12.598;2022-12-20T08:34:18;101965.94;;;0.26
64904;BMP280;51401;48.882;12.598;2022-12-20T08:36:43;101880.31;;;0.23
64904;BMP280;51401;48.882;12.598;2022-12-20T08:39:09;101804.78;;;0.16
64904;BMP280;51401;48.882;12.598;2022-12-20T08:41:35;101828.09;;;0.32
64904;BMP280;51401;48.882;12.598;2022-12-20T08:44:02;101759.75;;;0.34
64904;BMP280;51401;48.882;12.598;2022-12-20T08:46:27;101683.84;;;0.30
64904;BMP280;51401;48.882;12.598;2022-12-20T08:48:53;101721.22;;;0.48
64904;BMP280;51401;48.882;12.598;2022-12-20T08:51:18;101646.75;;;0.64
64904;BMP280;51401;48.882;12.598;2022-12-20T08:53:43;101561.00;;;0.81
64904;BMP280;51401;48.882;12.598;2022-12-20T08:56:11;101469.41;;;1.08
64904;BMP280;51401;48.882;12.598;2022-12-20T08:58:38;101321.03;;;1.21
64904;BMP280;51401;48.882;12.598;2022-12-20T09:01:05;101161.69;;;1.39
64904;BMP280;51401;48.882;12.598;2022-12-20T09:03:33;100934.94;;;1.23
64904;BMP280;51401;48.882;12.598;2022-12-20T09:05:58;100798.81;;;1.27
64904;BMP280;51401;48.882;12.598;2022-12-20T09:08:25;100620.81;;;1.16
64904;BMP280;51401;48.882;12.598;2022-12-20T09:10:51;100560.94;;;0.96
64904;BMP280;51401;48.882;12.598;2022-12-20T09:13:17;100514.38;;;0.89
64904;BMP280;51401;48.882;12.598;2022-12-20T09:15:42;100504.00;;;0.79
64904;BMP280;51401;48.882;12.598;2022-12-20T09:18:09;100515.16;;;0.90
64904;BMP280;51401;48.882;12.598;2022-12-20T09:20:34;100467.66;;;0.72
64904;BMP280;51401;48.882;12.598;2022-12-20T09:22:59;100499.53;;;0.70
64904;BMP280;51401;48.882;12.598;2022-12-20T09:25:26;100504.63;;;0.70
64904;BMP280;51401;48.882;12.598;2022-12-20T09:27:52;100503.53;;;0.66
64904;BMP280;51401;48.882;12.598;2022-12-20T09:30:19;100496.91;;;0.65
64904;BMP280;51401;48.882;12.598;2022-12-20T09:32:44;100522.13;;;0.62
64904;BMP280;51401;48.882;12.598;2022-12-20T09:35:10;100543.78;;;0.59
64904;BMP280;51401;48.882;12.598;2022-12-20T09:37:35;100575.72;;;0.78
64904;BMP280;51401;48.882;12.598;2022-12-20T09:40:01;100568.75;;;0.57
64904;BMP280;51401;48.882;12.598;2022-12-20T09:42:27;100613.22;;;0.61
64904;BMP280;51401;48.882;12.598;2022-12-20T09:45:00;100609.97;;;0.49
64904;BMP280;51401;48.882;12.598;2022-12-20T09:47:27;100629.91;;;0.52
64904;BMP280;51401;48.882;12.598;2022-12-20T09:49:55;100625.94;;;0.45
64904;BMP280;51401;48.882;12.598;2022-12-20T09:52:46;100673.84;;;0.54
64904;BMP280;51401;48.882;12.598;2022-12-20T09:58:21;100651.16;;;0.69
64904;BMP280;51401;48.882;12.598;2022-12-20T10:00:49;100623.47;;;0.77
64904;BMP280;51401;48.882;12.598;2022-12-20T10:03:29;100580.28;;;0.76
64904;BMP280;51401;48.882;12.598;2022-12-20T10:06:00;100497.03;;;0.59
64904;BMP280;51401;48.882;12.598;2022-12-20T10:09:04;100540.53;;;0.64
64904;BMP280;51401;48.882;12.598;2022-12-20T10:11:44;100513.53;;;0.84
64904;BMP280;51401;48.882;12.598;2022-12-20T10:14:39;100485.72;;;1.04
64904;BMP280;51401;48.882;12.598;2022-12-20T10:17:11;100388.31;;;1.16
64904;BMP280;51401;48.882;12.598;2022-12-20T10:19:56;100359.59;;;1.57
64904;BMP280;51401;48.882;12.598;2022-12-20T10:22:41;100183.81;;;1.28
64904;BMP280;51401;48.882;12.598;2022-12-20T10:25:16;100115.16;;;1.05
64904;BMP280;51401;48.882;12.598;2022-12-20T10:27:44;100137.00;;;1.22
64904;BMP280;51401;48.882;12.598;2022-12-20T10:30:19;100060.84;;;1.19
64904;BMP280;51401;48.882;12.598;2022-12-20T10:32:47;100074.00;;;1.42
64904;BMP280;51401;48.882;12.598;2022-12-20T10:37:50;99902.78;;;1.42
64904;BMP280;51401;48.882;12.598;2022-12-20T10:40:29;99905.91;;;1.84
64904;BMP280;51401;48.882;12.598;2022-12-20T10:42:55;99838.16;;;1.77
64904;BMP280;51401;48.882;12.598;2022-12-20T10:45:28;99755.34;;;1.73
64904;BMP280;51401;48.882;12.598;2022-12-20T10:48:01;99707.56;;;1.68
64904;BMP280;51401;48.882;12.598;2022-12-20T10:50:26;99670.38;;;1.95
64904;BMP280;51401;48.882;12.598;2022-12-20T10:53:21;99587.53;;;1.96
64904;BMP280;51401;48.882;12.598;2022-12-20T10:55:48;99536.31;;;2.11
64904;BMP280;51401;48.882;12.598;2022-12-20T11:03:29;99416.00;;;1.88
64904;BMP280;51401;48.882;12.598;2022-12-20T11:06:00;99435.31;;;2.04
64904;BMP280;51401;48.882;12.598;2022-12-20T11:08:29;99397.72;;;2.04
64904;BMP280;51401;48.882;12.598;2022-12-20T11:11:20;99374.63;;;2.14
64904;BMP280;51401;48.882;12.598;2022-12-20T11:13:47;99359.75;;;2.16
64904;BMP280;51401;48.882;12.598;2022-12-20T11:16:23;99331.88;;;1.86
64904;BMP280;51401;48.882;12.598;2022-12-20T11:18:58;99333.13;;;1.94
64904;BMP280;51401;48.882;12.598;2022-12-20T11:21:42;99312.91;;;1.92
64904;BMP280;51401;48.882;12.598;2022-12-20T11:24:47;99336.22;;;2.19
64904;BMP280;51401;48.882;12.598;2022-12-20T11:30:11;99277.16;;;2.93
64904;BMP280;51401;48.882;12.598;2022-12-20T11:33:02;99178.09;;;2.76
64904;BMP280;51401;48.882;12.598;2022-12-20T11:38:24;99031.03;;;2.82
64904;BMP280;51401;48.882;12.598;2022-12-20T11:41:05;98973.25;;;2.49
64904;BMP280;51401;48.882;12.598;2022-12-20T11:43:49;98959.38;;;2.37
64904;BMP280;51401;48.882;12.598;2022-12-20T11:46:22;98972.78;;;2.15
64904;BMP280;51401;48.882;12.598;2022-12-20T11:51:32;99003.38;;;1.89
64904;BMP280;51401;48.882;12.598;2022-12-20T11:54:11;99032.94;;;1.77
64904;BMP280;51401;48.882;12.598;2022-12-20T11:56:40;99058.00;;;1.75
64904;BMP280;51401;48.882;12.598;2022-12-20T12:01:49;99122.50;;;2.08
64904;BMP280;51401;48.882;12.598;2022-12-20T12:04:20;99112.69;;;2.15
64904;BMP280;51401;48.882;12.598;2022-12-20T12:06:52;99108.31;;;2.34
64904;BMP280;51401;48.882;12.598;2022-12-20T12:09:25;99061.28;;;2.16
64904;BMP280;51401;48.882;12.598;2022-12-20T12:12:02;99012.66;;;1.98
64904;BMP280;51401;48.882;12.598;2022-12-20T12:14:35;99002.94;;;2.00
64904;BMP280;51401;48.882;12.598;2022-12-20T12:17:08;99057.06;;;2.07
64904;BMP280;51401;48.882;12.598;2022-12-20T12:19:40;99043.44;;;2.12
64904;BMP280;51401;48.882;12.598;2022-12-20T12:22:09;99034.75;;;2.13
64904;BMP280;51401;48.882;12.598;2022-12-20T12:24:40;99036.81;;;2.24
64904;BMP280;51401;48.882;12.598;2022-12-20T12:27:13;99037.91;;;2.23
64904;BMP280;51401;48.882;12.598;2022-12-20T12:29:40;99032.72;;;2.10
64904;BMP280;51401;48.882;12.598;2022-12-20T12:32:09;99032.47;;;2.11
64904;BMP280;51401;48.882;12.598;2022-12-20T12:38:03;99032.03;;;2.04
64904;BMP280;51401;48.882;12.598;2022-12-20T12:46:20;98991.09;;;2.36
64904;BMP280;51401;48.882;12.598;2022-12-20T12:49:03;98968.53;;;2.24
64904;BMP280;51401;48.882;12.598;2022-12-20T12:51:38;98989.72;;;2.43
64904;BMP280;51401;48.882;12.598;2022-12-20T12:56:39;98964.75;;;2.22
64904;BMP280;51401;48.882;12.598;2022-12-20T13:09:36;99068.94;;;1.98
64904;BMP280;51401;48.882;12.598;2022-12-20T13:17:58;99160.25;;;1.75
64904;BMP280;51401;48.882;12.598;2022-12-20T13:20:28;99173.31;;;1.73
64904;BMP280;51401;48.882;12.598;2022-12-20T13:25:47;99234.16;;;1.71
64904;BMP280;51401;48.882;12.598;2022-12-20T13:33:39;99279.31;;;1.80
64904;BMP280;51401;48.882;12.598;2022-12-20T13:41:35;99277.13;;;1.92
64904;BMP280;51401;48.882;12.598;2022-12-20T13:46:50;99265.53;;;1.77
64904;BMP280;51401;48.882;12.598;2022-12-20T13:54:44;99357.63;;;1.72
64904;BMP280;51401;48.882;12.598;2022-12-20T13:57:22;99383.94;;;1.72
64904;BMP280;51401;48.882;12.598;2022-12-20T13:59:52;99404.13;;;1.74
64904;BMP280;51401;48.882;12.598;2022-12-20T14:02:21;99410.81;;;1.65
64904;BMP280;51401;48.882;12.598;2022-12-20T14:05:36;99457.91;;;1.54
64904;BMP280;51401;48.882;12.598;2022-12-20T14:07:42;99521.81;;;1.44
64904;BMP280;51401;48.882;12.598;2022-12-20T14:10:23;99586.47;;;1.49
64904;BMP280;51401;48.882;12.598;2022-12-20T14:12:50;99643.97;;;1.42
64904;BMP280;51401;48.882;12.598;2022-12-20T14:15:34;99724.69;;;1.48
64904;BMP280;51401;48.882;12.598;2022-12-20T14:18:15;99791.66;;;1.40
64904;BMP280;51401;48.882;12.598;2022-12-20T14:20:41;99846.81;;;1.36
64904;BMP280;51401;48.882;12.598;2022-12-20T14:23:15;99906.34;;;1.37
64904;BMP280;51401;48.882;12.598;2022-12-20T14:25:45;99960.25;;;1.30
64904;BMP280;51401;48.882;12.598;2022-12-20T14:28:34;100013.91;;;1.30
64904;BMP280;51401;48.882;12.598;2022-12-20T14:31:01;100102.09;;;1.42
64904;BMP280;51401;48.882;12.598;2022-12-20T14:33:38;100153.16;;;1.33
64904;BMP280;51401;48.882;12.598;2022-12-20T14:38:52;100276.56;;;1.33
64904;BMP280;51401;48.882;12.598;2022-12-20T14:41:38;100335.31;;;1.33
64904;BMP280;51401;48.882;12.598;2022-12-20T14:46:33;100438.56;;;1.32
64904;BMP280;51401;48.882;12.598;2022-12-20T14:51:33;100553.50;;;1.27
64904;BMP280;51401;48.882;12.598;2022-12-20T14:53:59;100593.84;;;1.25
64904;BMP280;51401;48.882;12.598;2022-12-20T14:56:25;100641.41;;;1.26
64904;BMP280;51401;48.882;12.598;2022-12-20T14:59:13;100676.09;;;1.22
64904;BMP280;51401;48.882;12.598;2022-12-20T15:01:39;100722.16;;;1.27
64904;BMP280;51401;48.882;12.598;2022-12-20T15:04:30;100734.38;;;1.25
64904;BMP280;51401;48.882;12.598;2022-12-20T15:06:57;100765.59;;;1.27
64904;BMP280;51401;48.882;12.598;2022-12-20T15:09:22;100794.94;;;1.25
64904;BMP280;51401;48.882;12.598;2022-12-20T15:11:48;100823.81;;;1.25
64904;BMP280;51401;48.882;12.598;2022-12-20T15:14:31;100847.50;;;1.21
64904;BMP280;51401;48.882;12.598;2022-12-20T15:16:58;100905.03;;;1.23
64904;BMP280;51401;48.882;12.598;2022-12-20T15:19:23;100884.94;;;1.15
64904;BMP280;51401;48.882;12.598;2022-12-20T15:21:49;100910.84;;;1.19
64904;BMP280;51401;48.882;12.598;2022-12-20T15:24:17;100905.84;;;1.12
64904;BMP280;51401;48.882;12.598;2022-12-20T15:26:47;100912.97;;;1.10
64904;BMP280;51401;48.882;12.598;2022-12-20T15:29:19;100946.72;;;1.12
64904;BMP280;51401;48.882;12.598;2022-12-20T15:31:45;100949.38;;;1.06
64904;BMP280;51401;48.882;12.598;2022-12-20T15:34:18;100980.16;;;1.00
64904;BMP280;51401;48.882;12.598;2022-12-20T15:36:44;101018.13;;;0.96
64904;BMP280;51401;48.882;12.598;2022-12-20T15:39:10;101062.09;;;0.98
64904;BMP280;51401;48.882;12.598;2022-12-20T15:41:39;101087.97;;;0.90